Ragan Village, North Carolina
Current Conditions -  °F | °C
As of 2:54 PM on Thursday 18 Dec 2014 (Local Time) from KAKH Reporting Station
Clear Clear  
Wind Chill: 13°   Ceiling: Unl
Heat Index: 13°   Visibility: 10mi
Dew Point: -4°   Wind: 5mph
Humidity: 30%   Direction: 210°SSW
Pressure: 30.06"   Gusts: NA
Location:  35.2631°N, 81.1487°W
Report Text: KAKH 181954Z AUTO 21004KT 10SM CLR 13/M04 A3006 RMK AO2 SLP183 T01281044
Loading
Personal Weather Stations






























Interactive Weather Map New forecast layout! Learn more

10-Day Weather Forecast

Advertisements
Track Severe Weather on mobile